Latest Weather Observations for Melbourne Airport

IDV60801

Issued at 7:02 pm EST Monday 6 July 2015 (issued every 30 minutes, with the page automatically refreshed every 10 minutes)

About weather observations | Map of weather stations | Latest weather observations for VIC | Other Formats
Station Details ID: 086282 Name: MELBOURNE AIRPORT Lat: -37.67 Lon: 144.83 Height: 113.4 m
Data from the previous 72 hours. | See also: Recent months at Melbourne Airport
Date/Time
EST
Temp
°C
App
Temp
°C
Dew
Point
Rel
Hum
%
Delta-T
°C
Wind Press
QNH
hPa
Press
MSL
hPa
Rain
since 9 am
mm
Dir
 
Spd
km/h
Gust
km/h
Spd
kts
Gust
kts
06/06:30pm 7.7 0.5 5.7 87 0.9 N 33 43 18 23 1016.7 1016.9 1.0
06/05:30pm 8.0 1.0 5.8 86 1.0 N 32 41 17 22 1015.9 1016.1 1.0
06/05:00pm 8.0 1.8 6.3 89 0.8 N 28 35 15 19 1015.8 1016.0 1.0
06/04:30pm 8.3 2.8 6.1 86 1.0 N 24 32 13 17 1015.6 1015.8 0.4
06/04:00pm 9.0 2.2 5.2 77 1.7 N 30 39 16 21 1015.6 1015.8 0.0
06/03:30pm 9.6 3.5 5.0 73 2.1 N 26 33 14 18 1015.6 1015.8 0.0
06/03:00pm 10.0 3.0 3.9 66 2.7 N 30 41 16 22 1015.4 1015.6 0.0
06/02:30pm 10.4 2.9 3.6 63 3.0 N 32 41 17 22 1015.2 1015.4 0.0
06/02:00pm 10.6 3.6 3.9 63 3.0 N 30 41 16 22 1015.2 1015.4 0.0
06/01:30pm 10.2 2.5 3.6 63 2.9 N 33 46 18 25 1015.2 1015.4 0.0
06/01:00pm 10.3 2.3 3.7 63 2.9 N 35 46 19 25 1015.4 1015.6 0.0
06/12:00pm 9.2 1.7 3.2 66 2.6 N 32 41 17 22 1015.9 1016.1 0.0
06/11:30am 9.2 1.6 3.7 68 2.4 N 33 48 18 26 1016.1 1016.3 0.0
06/11:05am 8.7 0.7 3.6 70 2.2 N 35 56 19 30 1016.2 1016.4 0.0
06/11:00am 8.7 0.7 3.9 72 2.1 N 35 52 19 28 1016.3 1016.5 0.0
06/10:30am 8.2 0.6 4.1 75 1.8 N 33 43 18 23 1016.4 1016.6 0.0
06/10:00am 7.6 -0.1 3.6 76 1.7 N 33 46 18 25 1016.4 1016.6 0.0
06/09:30am 6.9 -0.1 3.9 81 1.3 N 30 48 16 26 1016.5 1016.7 0.0
06/09:00am 6.7 1.6 4.2 84 1.1 NNE 20 30 11 16 1016.6 1016.8 2.0
06/08:30am 6.7 -0.3 3.9 82 1.2 NNE 30 37 16 20 1016.3 1016.5 2.0
06/08:19am 6.5 -1.0 4.2 85 1.0 NNE 33 43 18 23 1016.2 1016.4 2.0
06/08:00am 6.6 -0.6 4.8 88 0.8 N 32 39 17 21 1016.0 1016.2 1.4
06/07:48am 6.5 -0.8 4.7 88 0.8 N 32 41 17 22 1016.0 1016.2 1.0
06/07:30am 7.2 -0.2 4.0 80 1.4 N 32 44 17 24 1016.0 1016.2 0.6
06/07:00am 7.0 -0.1 3.7 79 1.4 N 30 41 16 22 1016.0 1016.2 0.2
06/05:30am 7.9 -1.2 1.9 66 2.5 N 39 54 21 29 1015.1 1015.3 0.0
06/05:00am 7.8 -0.5 2.0 67 2.4 N 35 43 19 23 1015.5 1015.7 0.0
06/04:30am 7.9 -1.6 1.9 66 2.5 N 41 50 22 27 1015.7 1015.9 0.0
06/04:00am 8.1 -1.0 1.8 64 2.6 N 39 48 21 26 1015.7 1015.9 0.0
06/03:30am 8.0 -1.5 2.0 66 2.5 N 41 52 22 28 1015.7 1015.9 0.0
06/03:00am 8.2 -1.7 1.7 63 2.7 N 43 56 23 30 1015.9 1016.1 0.0
06/02:30am 8.0 -2.0 2.0 66 2.5 N 44 54 24 29 1016.2 1016.4 0.0
06/02:00am 8.0 -1.8 2.0 66 2.5 N 43 52 23 28 1016.4 1016.6 0.0
06/01:30am 8.0 -1.5 2.0 66 2.5 N 41 52 22 28 1016.5 1016.7 0.0
06/01:00am 8.2 -1.3 1.9 64 2.6 N 41 52 22 28 1016.7 1016.9 0.0
06/12:30am 8.0 -1.1 2.0 66 2.5 N 39 50 21 27 1016.9 1017.1 0.0
 
Date/Time
EST
Temp
°C
App
Temp
°C
Dew
Point
Rel
Hum
%
Delta-T
°C
Wind Press
QNH
hPa
Press
MSL
hPa
Rain
since 9 am
mm
Dir
 
Spd
km/h
Gust
km/h
Spd
kts
Gust
kts
05/11:37pm 8.7 -1.2 1.7 61 2.9 N 43 63 23 34 1017.2 1017.4 0.0
05/11:30pm 8.3 -0.8 1.8 63 2.7 N 39 52 21 28 1017.3 1017.5 0.0
05/11:00pm 8.3 -0.8 1.8 63 2.7 N 39 59 21 32 1017.2 1017.4 0.0
05/10:55pm 8.2 -0.9 1.9 64 2.6 N 39 59 21 32 1017.2 1017.4 0.0
05/10:30pm 8.4 -0.3 1.9 63 2.7 N 37 46 20 25 1017.4 1017.6 0.0
05/10:00pm 8.7 -0.4 2.0 63 2.8 N 39 52 21 28 1017.5 1017.7 0.0
05/09:30pm 8.4 0.1 2.2 65 2.6 N 35 46 19 25 1017.7 1017.9 0.0
05/09:00pm 8.7 0.8 2.3 64 2.7 N 33 41 18 22 1017.7 1017.9 0.0
05/08:30pm 8.4 0.7 2.5 66 2.5 N 32 37 17 20 1017.8 1018.0 0.0
05/08:00pm 8.9 1.2 2.2 63 2.8 N 32 44 17 24 1017.7 1017.9 0.0
05/07:30pm 9.2 1.3 2.3 62 2.9 N 33 41 18 22 1017.7 1017.9 0.0
05/07:00pm 9.3 1.1 2.5 62 2.9 N 35 43 19 23 1017.6 1017.8 0.0
05/06:30pm 10.1 2.2 2.4 59 3.3 N 33 41 18 22 1017.5 1017.7 0.0
05/06:00pm 11.0 3.0 1.8 53 3.9 N 33 43 18 23 1017.5 1017.7 0.0
05/05:30pm 11.3 3.6 2.2 53 3.9 N 32 39 17 21 1017.4 1017.6 0.0
05/05:00pm 11.6 4.0 2.7 54 3.9 N 32 39 17 21 1017.3 1017.5 0.0
05/04:30pm 12.7 5.4 2.4 49 4.5 N 30 41 16 22 1017.5 1017.7 0.0
05/04:00pm 12.9 6.0 2.7 50 4.5 N 28 39 15 21 1017.6 1017.8 0.0
05/03:30pm 13.6 6.4 3.1 49 4.7 N 30 41 16 22 1017.6 1017.8 0.0
05/03:00pm 13.7 6.9 3.3 49 4.7 N 28 37 15 20 1017.8 1018.0 0.0
05/02:30pm 13.8 7.4 3.4 49 4.7 NNW 26 39 14 21 1017.8 1018.0 0.0
05/02:00pm 14.4 6.3 3.1 46 5.1 N 35 44 19 24 1017.7 1017.9 0.0
05/01:30pm 14.5 7.0 3.2 46 5.1 NNW 32 43 17 23 1017.9 1018.1 0.0
05/01:00pm 14.9 6.4 3.2 45 5.3 N 37 48 20 26 1018.1 1018.2 0.0
05/12:30pm 14.5 6.8 3.2 46 5.1 N 33 44 18 24 1018.5 1018.7 0.0
05/12:00pm 13.9 7.1 3.2 48 4.8 N 28 39 15 21 1018.9 1019.1 0.0
05/11:30am 12.8 6.1 3.4 53 4.2 N 28 39 15 21 1019.2 1019.4 0.0
05/11:00am 12.1 5.3 3.3 55 3.9 N 28 37 15 20 1019.7 1019.9 0.0
05/10:30am 10.8 4.0 3.3 60 3.3 N 28 39 15 21 1020.0 1020.2 0.0
05/10:00am 9.8 4.1 2.8 61 3.0 N 22 30 12 16 1020.2 1020.4 0.0
05/09:30am 9.1 3.8 2.8 64 2.7 N 20 30 11 16 1020.3 1020.5 0.0
05/09:00am 8.5 1.6 2.6 66 2.5 N 28 37 15 20 1020.0 1020.2 3.0
05/08:30am 7.8 0.9 2.3 68 2.3 N 28 35 15 19 1020.0 1020.2 3.0
05/08:00am 7.6 1.5 2.6 70 2.1 N 24 32 13 17 1020.2 1020.4 3.0
05/07:30am 7.7 2.0 2.7 70 2.1 NNW 22 32 12 17 1020.3 1020.5 3.0
05/07:00am 8.1 0.8 2.4 67 2.4 N 30 35 16 19 1020.0 1020.2 3.0
05/06:30am 8.1 0.5 2.6 68 2.3 N 32 39 17 21 1019.8 1020.0 3.0
05/06:00am 8.4 0.2 2.5 66 2.5 N 35 41 19 22 1019.7 1019.9 3.0
05/05:30am 8.6 1.0 2.7 66 2.5 N 32 41 17 22 1019.4 1019.6 3.0
05/05:00am 8.5 0.9 2.9 68 2.4 N 32 39 17 21 1019.4 1019.6 3.0
05/04:30am 8.5 1.7 3.1 69 2.3 N 28 33 15 18 1019.6 1019.8 3.0
05/04:00am 8.6 1.8 3.0 68 2.4 N 28 33 15 18 1020.0 1020.2 3.0
05/03:30am 8.4 2.4 3.3 70 2.2 N 24 30 13 16 1020.4 1020.6 3.0
05/03:00am 8.6 3.0 3.2 69 2.3 N 22 32 12 17 1020.5 1020.7 3.0
05/02:39am 8.7 1.6 3.4 69 2.3 N 30 48 16 26 1020.4 1020.6 3.0
05/02:30am 8.6 1.9 3.5 70 2.2 N 28 35 15 19 1020.5 1020.7 3.0
05/02:00am 8.5 1.5 3.9 73 2.0 N 30 35 16 19 1020.6 1020.8 3.0
05/01:30am 8.9 1.8 3.3 68 2.4 N 30 35 16 19 1020.7 1020.9 3.0
05/01:00am 9.2 2.4 3.2 66 2.6 N 28 33 15 18 1021.0 1021.2 3.0
05/12:30am 9.3 3.7 3.3 66 2.6 N 22 30 12 16 1021.0 1021.2 3.0
05/12:00am 9.5 2.7 3.3 65 2.7 N 28 37 15 20 1021.2 1021.4 3.0
 
Date/Time
EST
Temp
°C
App
Temp
°C
Dew
Point
Rel
Hum
%
Delta-T
°C
Wind Press
QNH
hPa
Press
MSL
hPa
Rain
since 9 am
mm
Dir
 
Spd
km/h
Gust
km/h
Spd
kts
Gust
kts
04/11:30pm 9.5 3.2 3.5 66 2.6 N 26 32 14 17 1021.3 1021.5 3.0
04/11:00pm 9.5 3.6 3.8 67 2.5 N 24 30 13 16 1021.4 1021.6 3.0
04/10:30pm 9.3 3.1 4.1 70 2.3 N 26 33 14 18 1021.4 1021.6 3.0
04/10:00pm 9.0 2.4 4.2 72 2.1 N 28 33 15 18 1021.5 1021.7 3.0
04/09:42pm 8.9 2.3 4.4 73 2.0 N 28 46 15 25 1021.6 1021.8 3.0
04/09:30pm 8.9 2.8 4.6 74 1.9 N 26 33 14 18 1021.6 1021.8 3.0
04/09:00pm 9.0 2.9 4.7 74 1.9 N 26 32 14 17 1021.8 1022.0 3.0
04/08:30pm 8.8 3.5 5.2 78 1.6 N 22 30 12 16 1022.0 1022.2 3.0
04/08:00pm 8.8 3.2 5.2 78 1.6 N 24 30 13 16 1021.9 1022.1 3.0
04/07:30pm 8.9 3.3 5.4 79 1.6 N 24 28 13 15 1021.9 1022.1 3.0
04/07:00pm 9.2 3.9 5.0 75 1.9 N 22 28 12 15 1021.8 1022.0 2.8
04/06:30pm 9.6 4.2 4.7 71 2.2 N 22 28 12 15 1021.7 1021.9 2.8
04/06:00pm 9.4 4.0 4.7 72 2.1 N 22 26 12 14 1021.5 1021.7 2.8
04/05:30pm 9.2 3.5 5.0 75 1.9 N 24 30 13 16 1021.4 1021.6 2.8
04/05:00pm 9.4 3.7 4.7 72 2.1 N 24 30 13 16 1021.3 1021.5 2.8
04/04:30pm 9.8 4.4 4.7 70 2.3 N 22 30 12 16 1021.5 1021.7 2.8
04/04:00pm 9.3 4.1 5.3 76 1.8 N 22 28 12 15 1021.5 1021.7 2.8
04/03:30pm 9.8 4.9 5.2 73 2.1 N 20 26 11 14 1021.4 1021.6 2.8
04/03:00pm 9.2 3.2 5.5 78 1.7 N 26 32 14 17 1021.3 1021.5 2.8
04/02:30pm 8.6 3.0 5.5 81 1.4 N 24 32 13 17 1021.1 1021.3 2.8
04/02:00pm 8.7 2.7 5.1 78 1.6 N 26 30 14 16 1021.2 1021.4 2.8
04/01:30pm 8.3 1.9 5.2 81 1.4 N 28 35 15 19 1021.3 1021.5 2.8
04/01:00pm 8.0 2.1 5.6 85 1.1 N 26 32 14 17 1021.5 1021.7 2.8
04/12:30pm 7.7 1.4 5.7 87 0.9 N 28 33 15 18 1021.9 1022.1 2.8
04/12:00pm 7.4 1.0 5.4 87 0.9 N 28 33 15 18 1022.2 1022.4 2.6
04/11:30am 7.7 1.3 5.2 84 1.1 N 28 33 15 18 1022.5 1022.7 1.6
04/11:00am 7.4 0.6 5.1 85 1.0 N 30 35 16 19 1022.8 1023.0 1.6
04/10:30am 7.7 0.9 5.0 83 1.2 N 30 33 16 18 1022.8 1023.0 1.2
04/10:00am 7.3 1.2 4.8 84 1.1 N 26 30 14 16 1022.7 1022.9 1.2
04/09:50am 7.0 1.3 4.7 85 1.0 N 24 33 13 18 1022.7 1022.9 1.2
04/09:30am 8.0 2.9 4.3 77 1.6 N 20 28 11 15 1022.8 1023.0 0.6
04/09:25am 8.3 2.7 3.7 73 2.0 N 22 30 12 16 1022.7 1022.9 0.2
04/09:00am 9.1 1.2 1.3 58 3.2 N 32 37 17 20 1022.3 1022.5 0.0
04/08:30am 8.8 1.5 0.0 54 3.5 N 28 35 15 19 1022.4 1022.6 0.0
04/08:00am 8.3 1.0 0.3 57 3.2 N 28 35 15 19 1022.4 1022.6 0.0
04/07:30am 8.3 1.0 -0.1 55 3.3 N 28 33 15 18 1022.4 1022.6 0.0
04/07:00am 8.4 1.4 -0.6 53 3.5 N 26 35 14 19 1022.2 1022.4 0.0
04/06:30am 8.5 1.4 -1.1 51 3.7 N 26 33 14 18 1022.1 1022.3 0.0
04/06:00am 8.3 1.3 -0.7 53 3.5 NNW 26 32 14 17 1022.1 1022.3 0.0
04/05:30am 8.2 1.2 -0.8 53 3.5 N 26 33 14 18 1022.1 1022.3 0.0
04/05:00am 8.3 1.7 -0.7 53 3.5 N 24 32 13 17 1022.2 1022.4 0.0
04/04:30am 8.3 1.7 -0.4 54 3.4 N 24 32 13 17 1022.1 1022.3 0.0
04/04:00am 7.8 1.2 -0.4 56 3.2 N 24 30 13 16 1022.1 1022.3 0.0
04/03:30am 8.2 2.3 -0.5 54 3.4 N 20 30 11 16 1022.4 1022.6 0.0
04/03:00am 8.4 2.7 -0.9 52 3.6 NNW 19 28 10 15 1022.9 1023.1 0.0
04/02:30am 8.1 2.9 0.0 56 3.2 N 17 19 9 10 1023.2 1023.4 0.0
04/02:00am 8.1 2.8 -0.3 55 3.3 N 17 20 9 11 1023.4 1023.6 0.0
04/01:30am 8.2 3.3 -0.5 54 3.4 NNW 15 22 8 12 1023.5 1023.7 0.0
04/01:00am 8.2 2.9 -0.5 54 3.4 NNW 17 22 9 12 1023.7 1023.9 0.0
04/12:30am 8.0 2.7 -0.8 54 3.4 NNW 17 24 9 13 1024.0 1024.2 0.0
04/12:00am 7.6 1.7 -0.7 55 3.2 NNW 20 28 11 15 1024.3 1024.5 0.0
 
Date/Time
EST
Temp
°C
App
Temp
°C
Dew
Point
Rel
Hum
%
Delta-T
°C
Wind Press
QNH
hPa
Press
MSL
hPa
Rain
since 9 am
mm
Dir
 
Spd
km/h
Gust
km/h
Spd
kts
Gust
kts
03/11:30pm 7.3 1.7 -0.1 59 2.9 N 19 22 10 12 1024.3 1024.5 0.0
03/11:00pm 6.9 1.1 -0.4 59 2.8 N 20 26 11 14 1024.3 1024.5 0.0
03/10:30pm 6.9 1.1 -0.4 59 2.8 N 20 26 11 14 1024.7 1024.9 0.0
03/10:00pm 6.9 1.3 0.0 61 2.7 N 19 20 10 11 1025.0 1025.2 0.0
03/09:30pm 7.1 1.9 0.2 61 2.7 NNW 17 19 9 10 1025.4 1025.7 0.0
03/09:00pm 7.1 2.3 -0.1 60 2.8 NNW 15 20 8 11 1025.6 1025.9 0.0
03/08:30pm 7.6 3.1 -0.1 58 3.0 NNW 13 17 7 9 1025.7 1026.0 0.0
03/08:00pm 8.6 3.7 -0.6 52 3.6 NNW 15 19 8 10 1025.6 1025.9 0.0
03/07:30pm 8.7 4.5 -1.2 50 3.8 NNW 11 15 6 8 1025.8 1026.1 0.0

Other Formats:

Comma delimited format used in spreadsheet applications
http://www.bom.gov.au/fwo/IDV60801/IDV60801.94866.axf

JavaScript Object Notation format (JSON) in row-major order
http://www.bom.gov.au/fwo/IDV60801/IDV60801.94866.json